sensor_id;sensor_type;location;lat;lon;timestamp;P1;durP1;ratioP1;P2;durP2;ratioP2
6689;SDS011;3382;51.576;8.076;2023-03-01T00:02:15;24.07;;;13.50;;
6689;SDS011;3382;51.576;8.076;2023-03-01T00:04:41;19.47;;;12.80;;
6689;SDS011;3382;51.576;8.076;2023-03-01T00:07:07;19.07;;;12.70;;
6689;SDS011;3382;51.576;8.076;2023-03-01T00:09:32;21.53;;;12.90;;
6689;SDS011;3382;51.576;8.076;2023-03-01T00:11:58;17.93;;;13.37;;
6689;SDS011;3382;51.576;8.076;2023-03-01T00:14:23;17.37;;;12.73;;
6689;SDS011;3382;51.576;8.076;2023-03-01T00:16:49;18.93;;;13.30;;
6689;SDS011;3382;51.576;8.076;2023-03-01T00:19:18;19.33;;;13.17;;
6689;SDS011;3382;51.576;8.076;2023-03-01T00:21:45;18.83;;;13.00;;
6689;SDS011;3382;51.576;8.076;2023-03-01T00:24:10;19.97;;;13.27;;
6689;SDS011;3382;51.576;8.076;2023-03-01T00:26:36;20.13;;;12.73;;
6689;SDS011;3382;51.576;8.076;2023-03-01T00:29:02;18.77;;;12.73;;
6689;SDS011;3382;51.576;8.076;2023-03-01T00:31:28;17.73;;;13.13;;
6689;SDS011;3382;51.576;8.076;2023-03-01T00:33:57;17.17;;;12.30;;
6689;SDS011;3382;51.576;8.076;2023-03-01T00:36:26;18.77;;;13.10;;
6689;SDS011;3382;51.576;8.076;2023-03-01T00:38:53;17.40;;;12.70;;
6689;SDS011;3382;51.576;8.076;2023-03-01T00:41:20;17.37;;;11.20;;
6689;SDS011;3382;51.576;8.076;2023-03-01T00:43:47;18.33;;;11.63;;
6689;SDS011;3382;51.576;8.076;2023-03-01T00:46:15;17.53;;;12.40;;
6689;SDS011;3382;51.576;8.076;2023-03-01T00:48:42;17.37;;;12.00;;
6689;SDS011;3382;51.576;8.076;2023-03-01T00:51:12;18.20;;;11.87;;
6689;SDS011;3382;51.576;8.076;2023-03-01T00:53:43;19.03;;;11.97;;
6689;SDS011;3382;51.576;8.076;2023-03-01T00:56:10;16.73;;;12.53;;
6689;SDS011;3382;51.576;8.076;2023-03-01T00:58:37;18.50;;;12.50;;
6689;SDS011;3382;51.576;8.076;2023-03-01T01:01:16;21.63;;;12.50;;
6689;SDS011;3382;51.576;8.076;2023-03-01T01:06:18;16.53;;;12.63;;
6689;SDS011;3382;51.576;8.076;2023-03-01T01:08:45;19.07;;;13.67;;
6689;SDS011;3382;51.576;8.076;2023-03-01T01:11:11;18.10;;;13.33;;
6689;SDS011;3382;51.576;8.076;2023-03-01T01:13:37;18.70;;;13.37;;
6689;SDS011;3382;51.576;8.076;2023-03-01T01:16:04;20.03;;;13.40;;
6689;SDS011;3382;51.576;8.076;2023-03-01T01:18:30;20.73;;;13.23;;
6689;SDS011;3382;51.576;8.076;2023-03-01T01:20:56;19.33;;;13.60;;
6689;SDS011;3382;51.576;8.076;2023-03-01T01:23:22;20.80;;;12.87;;
6689;SDS011;3382;51.576;8.076;2023-03-01T01:25:47;20.20;;;13.17;;
6689;SDS011;3382;51.576;8.076;2023-03-01T01:28:13;20.10;;;13.13;;
6689;SDS011;3382;51.576;8.076;2023-03-01T01:30:38;21.47;;;14.00;;
6689;SDS011;3382;51.576;8.076;2023-03-01T01:33:04;17.97;;;12.97;;
6689;SDS011;3382;51.576;8.076;2023-03-01T01:35:29;21.17;;;13.97;;
6689;SDS011;3382;51.576;8.076;2023-03-01T01:37:55;17.77;;;13.00;;
6689;SDS011;3382;51.576;8.076;2023-03-01T01:40:20;18.70;;;12.93;;
6689;SDS011;3382;51.576;8.076;2023-03-01T01:42:46;21.17;;;12.67;;
6689;SDS011;3382;51.576;8.076;2023-03-01T01:48:04;17.50;;;12.70;;
6689;SDS011;3382;51.576;8.076;2023-03-01T01:50:35;18.57;;;13.20;;
6689;SDS011;3382;51.576;8.076;2023-03-01T01:53:09;22.03;;;13.70;;
6689;SDS011;3382;51.576;8.076;2023-03-01T01:55:42;18.23;;;13.30;;
6689;SDS011;3382;51.576;8.076;2023-03-01T01:58:21;19.13;;;13.27;;
6689;SDS011;3382;51.576;8.076;2023-03-01T02:00:49;20.40;;;12.67;;
6689;SDS011;3382;51.576;8.076;2023-03-01T02:03:17;18.20;;;13.13;;
6689;SDS011;3382;51.576;8.076;2023-03-01T02:06:00;21.47;;;13.60;;
6689;SDS011;3382;51.576;8.076;2023-03-01T02:08:30;19.97;;;13.23;;
6689;SDS011;3382;51.576;8.076;2023-03-01T02:10:58;20.33;;;12.53;;
6689;SDS011;3382;51.576;8.076;2023-03-01T02:13:26;18.27;;;14.27;;
6689;SDS011;3382;51.576;8.076;2023-03-01T02:15:52;20.90;;;14.13;;
6689;SDS011;3382;51.576;8.076;2023-03-01T02:18:18;20.27;;;13.90;;
6689;SDS011;3382;51.576;8.076;2023-03-01T02:23:46;18.97;;;13.10;;
6689;SDS011;3382;51.576;8.076;2023-03-01T02:29:07;18.40;;;13.27;;
6689;SDS011;3382;51.576;8.076;2023-03-01T02:31:33;16.80;;;12.60;;
6689;SDS011;3382;51.576;8.076;2023-03-01T02:34:13;18.03;;;12.20;;
6689;SDS011;3382;51.576;8.076;2023-03-01T02:39:42;17.77;;;13.17;;
6689;SDS011;3382;51.576;8.076;2023-03-01T02:42:13;19.53;;;12.47;;
6689;SDS011;3382;51.576;8.076;2023-03-01T02:44:41;16.60;;;11.73;;
6689;SDS011;3382;51.576;8.076;2023-03-01T02:47:07;20.03;;;12.33;;
6689;SDS011;3382;51.576;8.076;2023-03-01T02:49:34;18.33;;;12.67;;
6689;SDS011;3382;51.576;8.076;2023-03-01T02:55:08;17.50;;;12.63;;
6689;SDS011;3382;51.576;8.076;2023-03-01T02:57:36;24.23;;;13.30;;
6689;SDS011;3382;51.576;8.076;2023-03-01T03:00:09;19.40;;;13.10;;
6689;SDS011;3382;51.576;8.076;2023-03-01T03:02:44;19.37;;;13.43;;
6689;SDS011;3382;51.576;8.076;2023-03-01T03:05:15;19.43;;;12.87;;
6689;SDS011;3382;51.576;8.076;2023-03-01T03:07:47;19.97;;;13.37;;
6689;SDS011;3382;51.576;8.076;2023-03-01T03:10:21;18.63;;;13.07;;
6689;SDS011;3382;51.576;8.076;2023-03-01T03:12:53;21.60;;;12.83;;
6689;SDS011;3382;51.576;8.076;2023-03-01T03:15:20;18.67;;;13.17;;
6689;SDS011;3382;51.576;8.076;2023-03-01T03:17:47;21.63;;;12.90;;
6689;SDS011;3382;51.576;8.076;2023-03-01T03:20:14;18.87;;;12.87;;
6689;SDS011;3382;51.576;8.076;2023-03-01T03:22:44;15.30;;;11.93;;
6689;SDS011;3382;51.576;8.076;2023-03-01T03:25:11;17.00;;;12.00;;
6689;SDS011;3382;51.576;8.076;2023-03-01T03:27:39;18.13;;;12.93;;
6689;SDS011;3382;51.576;8.076;2023-03-01T03:30:06;19.27;;;12.63;;
6689;SDS011;3382;51.576;8.076;2023-03-01T03:32:35;16.57;;;12.07;;
6689;SDS011;3382;51.576;8.076;2023-03-01T03:35:01;14.37;;;11.60;;
6689;SDS011;3382;51.576;8.076;2023-03-01T03:37:34;14.73;;;11.47;;
6689;SDS011;3382;51.576;8.076;2023-03-01T03:40:22;22.97;;;12.33;;
6689;SDS011;3382;51.576;8.076;2023-03-01T03:42:48;15.03;;;11.70;;
6689;SDS011;3382;51.576;8.076;2023-03-01T03:45:15;15.97;;;11.10;;
6689;SDS011;3382;51.576;8.076;2023-03-01T03:47:41;15.67;;;12.13;;
6689;SDS011;3382;51.576;8.076;2023-03-01T03:50:08;16.47;;;11.87;;
6689;SDS011;3382;51.576;8.076;2023-03-01T03:52:34;16.50;;;11.83;;
6689;SDS011;3382;51.576;8.076;2023-03-01T03:55:00;18.77;;;12.40;;
6689;SDS011;3382;51.576;8.076;2023-03-01T03:57:26;14.17;;;11.53;;
6689;SDS011;3382;51.576;8.076;2023-03-01T03:59:51;18.57;;;11.17;;
6689;SDS011;3382;51.576;8.076;2023-03-01T04:02:17;20.57;;;11.60;;
6689;SDS011;3382;51.576;8.076;2023-03-01T04:04:47;16.40;;;12.57;;
6689;SDS011;3382;51.576;8.076;2023-03-01T04:07:15;21.63;;;12.60;;
6689;SDS011;3382;51.576;8.076;2023-03-01T04:09:41;17.83;;;12.30;;
6689;SDS011;3382;51.576;8.076;2023-03-01T04:12:08;19.93;;;12.30;;
6689;SDS011;3382;51.576;8.076;2023-03-01T04:14:34;16.80;;;11.73;;
6689;SDS011;3382;51.576;8.076;2023-03-01T04:16:59;16.80;;;11.67;;
6689;SDS011;3382;51.576;8.076;2023-03-01T04:19:26;13.60;;;11.40;;
6689;SDS011;3382;51.576;8.076;2023-03-01T04:21:52;18.53;;;11.90;;
6689;SDS011;3382;51.576;8.076;2023-03-01T04:24:18;18.97;;;11.90;;
6689;SDS011;3382;51.576;8.076;2023-03-01T04:26:43;13.40;;;11.40;;
6689;SDS011;3382;51.576;8.076;2023-03-01T04:29:09;17.60;;;11.97;;
6689;SDS011;3382;51.576;8.076;2023-03-01T04:31:35;14.40;;;11.80;;
6689;SDS011;3382;51.576;8.076;2023-03-01T04:34:00;15.33;;;10.73;;
6689;SDS011;3382;51.576;8.076;2023-03-01T04:36:27;18.57;;;12.07;;
6689;SDS011;3382;51.576;8.076;2023-03-01T04:38:54;18.73;;;11.50;;
6689;SDS011;3382;51.576;8.076;2023-03-01T04:41:21;18.67;;;11.70;;
6689;SDS011;3382;51.576;8.076;2023-03-01T04:43:48;14.70;;;11.57;;
6689;SDS011;3382;51.576;8.076;2023-03-01T04:46:15;16.13;;;11.60;;
6689;SDS011;3382;51.576;8.076;2023-03-01T04:48:42;15.83;;;11.93;;
6689;SDS011;3382;51.576;8.076;2023-03-01T04:51:09;15.07;;;11.03;;
6689;SDS011;3382;51.576;8.076;2023-03-01T04:53:38;17.47;;;11.23;;
6689;SDS011;3382;51.576;8.076;2023-03-01T04:56:04;14.13;;;10.60;;
6689;SDS011;3382;51.576;8.076;2023-03-01T04:58:31;14.93;;;11.80;;
6689;SDS011;3382;51.576;8.076;2023-03-01T05:00:56;14.60;;;9.93;;
6689;SDS011;3382;51.576;8.076;2023-03-01T05:03:22;16.63;;;11.40;;
6689;SDS011;3382;51.576;8.076;2023-03-01T05:05:48;14.93;;;11.60;;
6689;SDS011;3382;51.576;8.076;2023-03-01T05:08:16;14.13;;;10.87;;
6689;SDS011;3382;51.576;8.076;2023-03-01T05:10:46;16.23;;;11.57;;
6689;SDS011;3382;51.576;8.076;2023-03-01T05:13:14;14.20;;;11.30;;
6689;SDS011;3382;51.576;8.076;2023-03-01T05:15:45;18.20;;;11.67;;
6689;SDS011;3382;51.576;8.076;2023-03-01T05:18:13;13.90;;;10.83;;
6689;SDS011;3382;51.576;8.076;2023-03-01T05:20:38;17.43;;;12.20;;
6689;SDS011;3382;51.576;8.076;2023-03-01T05:23:04;18.23;;;12.73;;
6689;SDS011;3382;51.576;8.076;2023-03-01T05:25:30;7.47;;;6.13;;
6689;SDS011;3382;51.576;8.076;2023-03-01T05:28:00;24.80;;;16.23;;
6689;SDS011;3382;51.576;8.076;2023-03-01T05:30:29;15.77;;;11.73;;
6689;SDS011;3382;51.576;8.076;2023-03-01T05:32:56;15.70;;;11.90;;
6689;SDS011;3382;51.576;8.076;2023-03-01T05:35:22;16.70;;;11.83;;
6689;SDS011;3382;51.576;8.076;2023-03-01T05:37:48;16.53;;;11.53;;
6689;SDS011;3382;51.576;8.076;2023-03-01T05:40:15;15.17;;;11.50;;
6689;SDS011;3382;51.576;8.076;2023-03-01T05:42:46;16.53;;;11.27;;
6689;SDS011;3382;51.576;8.076;2023-03-01T05:45:13;18.73;;;10.60;;
6689;SDS011;3382;51.576;8.076;2023-03-01T05:47:41;13.40;;;10.80;;
6689;SDS011;3382;51.576;8.076;2023-03-01T05:50:10;13.80;;;10.07;;
6689;SDS011;3382;51.576;8.076;2023-03-01T05:52:36;12.73;;;9.33;;
6689;SDS011;3382;51.576;8.076;2023-03-01T05:55:02;14.87;;;10.83;;
6689;SDS011;3382;51.576;8.076;2023-03-01T05:57:28;14.57;;;11.10;;
6689;SDS011;3382;51.576;8.076;2023-03-01T05:59:54;15.23;;;11.13;;
6689;SDS011;3382;51.576;8.076;2023-03-01T06:02:20;14.73;;;10.50;;
6689;SDS011;3382;51.576;8.076;2023-03-01T06:04:46;17.70;;;10.87;;
6689;SDS011;3382;51.576;8.076;2023-03-01T06:07:11;14.90;;;11.03;;
6689;SDS011;3382;51.576;8.076;2023-03-01T06:09:37;22.13;;;11.07;;
6689;SDS011;3382;51.576;8.076;2023-03-01T06:12:02;14.83;;;10.73;;
6689;SDS011;3382;51.576;8.076;2023-03-01T06:14:28;17.30;;;11.00;;
6689;SDS011;3382;51.576;8.076;2023-03-01T06:16:54;20.03;;;13.50;;
6689;SDS011;3382;51.576;8.076;2023-03-01T06:19:19;21.37;;;12.17;;
6689;SDS011;3382;51.576;8.076;2023-03-01T06:21:45;22.77;;;12.33;;
6689;SDS011;3382;51.576;8.076;2023-03-01T06:24:10;30.83;;;13.10;;
6689;SDS011;3382;51.576;8.076;2023-03-01T06:26:36;18.80;;;12.43;;
6689;SDS011;3382;51.576;8.076;2023-03-01T06:29:01;22.13;;;12.30;;
6689;SDS011;3382;51.576;8.076;2023-03-01T06:31:27;7.53;;;4.23;;
6689;SDS011;3382;51.576;8.076;2023-03-01T06:33:53;13.40;;;7.13;;
6689;SDS011;3382;51.576;8.076;2023-03-01T06:36:19;17.20;;;11.97;;
6689;SDS011;3382;51.576;8.076;2023-03-01T06:38:46;31.23;;;19.50;;
6689;SDS011;3382;51.576;8.076;2023-03-01T06:41:11;12.67;;;10.67;;
6689;SDS011;3382;51.576;8.076;2023-03-01T06:43:37;12.83;;;10.40;;
6689;SDS011;3382;51.576;8.076;2023-03-01T06:46:03;14.43;;;10.40;;
6689;SDS011;3382;51.576;8.076;2023-03-01T06:48:31;16.23;;;11.37;;
6689;SDS011;3382;51.576;8.076;2023-03-01T06:50:59;15.90;;;11.37;;
6689;SDS011;3382;51.576;8.076;2023-03-01T06:53:28;17.90;;;11.47;;
6689;SDS011;3382;51.576;8.076;2023-03-01T06:55:57;16.27;;;12.30;;
6689;SDS011;3382;51.576;8.076;2023-03-01T06:58:25;13.80;;;12.07;;
6689;SDS011;3382;51.576;8.076;2023-03-01T07:00:51;18.63;;;12.20;;
6689;SDS011;3382;51.576;8.076;2023-03-01T07:03:16;15.10;;;11.77;;
6689;SDS011;3382;51.576;8.076;2023-03-01T07:05:42;16.23;;;11.43;;
6689;SDS011;3382;51.576;8.076;2023-03-01T07:08:09;21.00;;;12.93;;
6689;SDS011;3382;51.576;8.076;2023-03-01T07:10:35;17.07;;;12.77;;
6689;SDS011;3382;51.576;8.076;2023-03-01T07:13:00;19.90;;;14.03;;
6689;SDS011;3382;51.576;8.076;2023-03-01T07:15:27;17.87;;;13.83;;
6689;SDS011;3382;51.576;8.076;2023-03-01T07:17:53;18.30;;;12.87;;
6689;SDS011;3382;51.576;8.076;2023-03-01T07:20:19;17.73;;;13.80;;
6689;SDS011;3382;51.576;8.076;2023-03-01T07:22:50;21.80;;;14.37;;
6689;SDS011;3382;51.576;8.076;2023-03-01T07:25:16;16.60;;;13.03;;
6689;SDS011;3382;51.576;8.076;2023-03-01T07:27:42;21.03;;;13.17;;
6689;SDS011;3382;51.576;8.076;2023-03-01T07:30:08;29.13;;;14.10;;
6689;SDS011;3382;51.576;8.076;2023-03-01T07:32:34;18.10;;;12.87;;
6689;SDS011;3382;51.576;8.076;2023-03-01T07:35:00;19.80;;;12.77;;
6689;SDS011;3382;51.576;8.076;2023-03-01T07:37:26;23.03;;;12.67;;
6689;SDS011;3382;51.576;8.076;2023-03-01T07:39:51;19.07;;;11.97;;
6689;SDS011;3382;51.576;8.076;2023-03-01T07:42:17;14.50;;;11.23;;
6689;SDS011;3382;51.576;8.076;2023-03-01T07:44:43;17.60;;;11.43;;
6689;SDS011;3382;51.576;8.076;2023-03-01T07:47:08;14.60;;;10.80;;
6689;SDS011;3382;51.576;8.076;2023-03-01T07:49:34;16.07;;;9.97;;
6689;SDS011;3382;51.576;8.076;2023-03-01T07:52:00;12.17;;;9.47;;
6689;SDS011;3382;51.576;8.076;2023-03-01T07:54:25;15.60;;;10.57;;
6689;SDS011;3382;51.576;8.076;2023-03-01T07:56:51;13.07;;;9.57;;
6689;SDS011;3382;51.576;8.076;2023-03-01T07:59:17;13.97;;;10.03;;
6689;SDS011;3382;51.576;8.076;2023-03-01T08:01:42;14.17;;;8.80;;
6689;SDS011;3382;51.576;8.076;2023-03-01T08:04:08;10.40;;;8.87;;
6689;SDS011;3382;51.576;8.076;2023-03-01T08:06:34;13.97;;;9.43;;
6689;SDS011;3382;51.576;8.076;2023-03-01T08:09:01;11.50;;;9.00;;
6689;SDS011;3382;51.576;8.076;2023-03-01T08:11:26;13.63;;;8.57;;
6689;SDS011;3382;51.576;8.076;2023-03-01T08:13:55;11.53;;;8.57;;
6689;SDS011;3382;51.576;8.076;2023-03-01T08:16:22;11.00;;;8.53;;
6689;SDS011;3382;51.576;8.076;2023-03-01T08:18:48;11.17;;;8.33;;
6689;SDS011;3382;51.576;8.076;2023-03-01T08:21:14;8.60;;;7.70;;
6689;SDS011;3382;51.576;8.076;2023-03-01T08:23:42;10.47;;;8.50;;
6689;SDS011;3382;51.576;8.076;2023-03-01T08:26:18;18.30;;;8.27;;
6689;SDS011;3382;51.576;8.076;2023-03-01T08:28:46;10.83;;;7.97;;
6689;SDS011;3382;51.576;8.076;2023-03-01T08:31:34;10.77;;;8.47;;
6689;SDS011;3382;51.576;8.076;2023-03-01T08:34:04;10.63;;;7.80;;
6689;SDS011;3382;51.576;8.076;2023-03-01T08:36:33;13.13;;;8.10;;
6689;SDS011;3382;51.576;8.076;2023-03-01T08:39:03;10.13;;;7.90;;
6689;SDS011;3382;51.576;8.076;2023-03-01T08:41:30;14.13;;;7.80;;
6689;SDS011;3382;51.576;8.076;2023-03-01T08:43:55;9.30;;;7.53;;
6689;SDS011;3382;51.576;8.076;2023-03-01T08:46:27;11.57;;;7.43;;
6689;SDS011;3382;51.576;8.076;2023-03-01T08:48:53;11.47;;;7.67;;
6689;SDS011;3382;51.576;8.076;2023-03-01T08:51:19;8.97;;;7.40;;
6689;SDS011;3382;51.576;8.076;2023-03-01T08:53:46;8.70;;;6.80;;
6689;SDS011;3382;51.576;8.076;2023-03-01T08:56:12;14.37;;;7.27;;
6689;SDS011;3382;51.576;8.076;2023-03-01T08:58:38;11.17;;;7.40;;
6689;SDS011;3382;51.576;8.076;2023-03-01T09:01:10;10.77;;;7.80;;
6689;SDS011;3382;51.576;8.076;2023-03-01T09:03:36;10.83;;;7.27;;
6689;SDS011;3382;51.576;8.076;2023-03-01T09:06:03;7.67;;;6.50;;
6689;SDS011;3382;51.576;8.076;2023-03-01T09:08:29;9.63;;;7.13;;
6689;SDS011;3382;51.576;8.076;2023-03-01T09:10:55;8.70;;;6.90;;
6689;SDS011;3382;51.576;8.076;2023-03-01T09:13:21;7.83;;;6.83;;
6689;SDS011;3382;51.576;8.076;2023-03-01T09:15:50;9.63;;;7.03;;
6689;SDS011;3382;51.576;8.076;2023-03-01T09:18:16;8.17;;;6.90;;
6689;SDS011;3382;51.576;8.076;2023-03-01T09:20:42;10.63;;;6.80;;
6689;SDS011;3382;51.576;8.076;2023-03-01T09:23:08;8.53;;;6.37;;
6689;SDS011;3382;51.576;8.076;2023-03-01T09:25:33;10.10;;;6.63;;
6689;SDS011;3382;51.576;8.076;2023-03-01T09:27:59;9.30;;;6.50;;
6689;SDS011;3382;51.576;8.076;2023-03-01T09:30:25;8.43;;;6.90;;
6689;SDS011;3382;51.576;8.076;2023-03-01T09:32:51;15.90;;;7.17;;
6689;SDS011;3382;51.576;8.076;2023-03-01T09:35:17;8.63;;;6.83;;
6689;SDS011;3382;51.576;8.076;2023-03-01T09:37:44;11.60;;;7.40;;
6689;SDS011;3382;51.576;8.076;2023-03-01T09:40:18;8.37;;;7.30;;
6689;SDS011;3382;51.576;8.076;2023-03-01T09:42:48;10.70;;;7.13;;
6689;SDS011;3382;51.576;8.076;2023-03-01T09:45:34;9.50;;;7.17;;
6689;SDS011;3382;51.576;8.076;2023-03-01T09:48:02;7.47;;;6.47;;
6689;SDS011;3382;51.576;8.076;2023-03-01T09:50:32;10.83;;;6.40;;
6689;SDS011;3382;51.576;8.076;2023-03-01T09:53:10;8.93;;;6.30;;
6689;SDS011;3382;51.576;8.076;2023-03-01T09:55:44;9.17;;;6.40;;
6689;SDS011;3382;51.576;8.076;2023-03-01T09:58:32;6.53;;;5.57;;
6689;SDS011;3382;51.576;8.076;2023-03-01T10:06:37;11.30;;;6.03;;
6689;SDS011;3382;51.576;8.076;2023-03-01T10:09:16;10.40;;;6.20;;
6689;SDS011;3382;51.576;8.076;2023-03-01T10:11:44;7.60;;;6.20;;
6689;SDS011;3382;51.576;8.076;2023-03-01T10:16:50;10.50;;;6.20;;
6689;SDS011;3382;51.576;8.076;2023-03-01T10:21:52;7.37;;;6.20;;
6689;SDS011;3382;51.576;8.076;2023-03-01T10:24:19;10.70;;;6.77;;
6689;SDS011;3382;51.576;8.076;2023-03-01T10:26:55;10.23;;;6.63;;
6689;SDS011;3382;51.576;8.076;2023-03-01T10:29:26;9.77;;;6.00;;
6689;SDS011;3382;51.576;8.076;2023-03-01T10:31:57;8.73;;;6.13;;
6689;SDS011;3382;51.576;8.076;2023-03-01T10:34:30;9.37;;;6.37;;
6689;SDS011;3382;51.576;8.076;2023-03-01T10:39:36;11.30;;;6.80;;
6689;SDS011;3382;51.576;8.076;2023-03-01T10:42:05;9.70;;;6.23;;
6689;SDS011;3382;51.576;8.076;2023-03-01T10:44:44;7.93;;;6.40;;
6689;SDS011;3382;51.576;8.076;2023-03-01T10:47:21;10.33;;;6.93;;
6689;SDS011;3382;51.576;8.076;2023-03-01T10:49:59;9.63;;;6.00;;
6689;SDS011;3382;51.576;8.076;2023-03-01T10:52:30;8.67;;;6.97;;
6689;SDS011;3382;51.576;8.076;2023-03-01T10:55:19;8.23;;;7.00;;
6689;SDS011;3382;51.576;8.076;2023-03-01T10:58:08;10.80;;;6.93;;
6689;SDS011;3382;51.576;8.076;2023-03-01T11:01:24;10.40;;;6.63;;
6689;SDS011;3382;51.576;8.076;2023-03-01T11:03:33;9.80;;;6.63;;
6689;SDS011;3382;51.576;8.076;2023-03-01T11:08:42;11.27;;;6.77;;
6689;SDS011;3382;51.576;8.076;2023-03-01T11:14:03;10.43;;;7.33;;
6689;SDS011;3382;51.576;8.076;2023-03-01T11:16:42;16.20;;;6.90;;
6689;SDS011;3382;51.576;8.076;2023-03-01T11:21:36;11.30;;;7.23;;
6689;SDS011;3382;51.576;8.076;2023-03-01T11:24:12;11.10;;;6.90;;
6689;SDS011;3382;51.576;8.076;2023-03-01T11:26:41;12.43;;;7.27;;
6689;SDS011;3382;51.576;8.076;2023-03-01T11:29:13;9.53;;;7.50;;
6689;SDS011;3382;51.576;8.076;2023-03-01T11:32:08;12.30;;;7.37;;
6689;SDS011;3382;51.576;8.076;2023-03-01T11:34:38;11.77;;;7.50;;
6689;SDS011;3382;51.576;8.076;2023-03-01T11:37:10;10.57;;;7.13;;
6689;SDS011;3382;51.576;8.076;2023-03-01T11:39:46;10.17;;;7.77;;
6689;SDS011;3382;51.576;8.076;2023-03-01T11:42:21;8.63;;;6.53;;
6689;SDS011;3382;51.576;8.076;2023-03-01T11:44:59;11.53;;;7.93;;
6689;SDS011;3382;51.576;8.076;2023-03-01T11:56:02;9.07;;;6.67;;
6689;SDS011;3382;51.576;8.076;2023-03-01T12:01:25;10.30;;;6.83;;
6689;SDS011;3382;51.576;8.076;2023-03-01T12:04:18;8.47;;;6.50;;
6689;SDS011;3382;51.576;8.076;2023-03-01T12:26:23;9.93;;;5.87;;
6689;SDS011;3382;51.576;8.076;2023-03-01T12:31:47;8.13;;;6.17;;
6689;SDS011;3382;51.576;8.076;2023-03-01T12:34:49;7.57;;;6.13;;
6689;SDS011;3382;51.576;8.076;2023-03-01T12:43:17;7.60;;;5.83;;
6689;SDS011;3382;51.576;8.076;2023-03-01T12:48:47;7.07;;;5.83;;
6689;SDS011;3382;51.576;8.076;2023-03-01T12:51:36;12.27;;;5.90;;
6689;SDS011;3382;51.576;8.076;2023-03-01T12:54:48;6.33;;;5.67;;
6689;SDS011;3382;51.576;8.076;2023-03-01T12:56:55;7.87;;;5.77;;
6689;SDS011;3382;51.576;8.076;2023-03-01T12:59:32;10.60;;;6.47;;
6689;SDS011;3382;51.576;8.076;2023-03-01T13:02:06;6.57;;;5.30;;
6689;SDS011;3382;51.576;8.076;2023-03-01T13:04:37;8.40;;;5.93;;
6689;SDS011;3382;51.576;8.076;2023-03-01T13:10:18;7.37;;;6.03;;
6689;SDS011;3382;51.576;8.076;2023-03-01T13:17:49;7.73;;;5.57;;
6689;SDS011;3382;51.576;8.076;2023-03-01T13:20:18;7.27;;;6.07;;
6689;SDS011;3382;51.576;8.076;2023-03-01T13:22:45;8.50;;;5.37;;
6689;SDS011;3382;51.576;8.076;2023-03-01T13:25:18;7.73;;;5.43;;
6689;SDS011;3382;51.576;8.076;2023-03-01T13:27:46;8.90;;;6.10;;
6689;SDS011;3382;51.576;8.076;2023-03-01T13:35:56;8.70;;;5.90;;
6689;SDS011;3382;51.576;8.076;2023-03-01T13:41:16;7.80;;;5.93;;
6689;SDS011;3382;51.576;8.076;2023-03-01T13:44:02;8.83;;;5.77;;
6689;SDS011;3382;51.576;8.076;2023-03-01T13:46:50;8.33;;;5.80;;
6689;SDS011;3382;51.576;8.076;2023-03-01T13:49:18;10.63;;;5.83;;
6689;SDS011;3382;51.576;8.076;2023-03-01T13:51:47;9.10;;;6.23;;
6689;SDS011;3382;51.576;8.076;2023-03-01T13:54:15;9.00;;;5.70;;
6689;SDS011;3382;51.576;8.076;2023-03-01T13:56:44;11.07;;;5.63;;
6689;SDS011;3382;51.576;8.076;2023-03-01T13:59:14;7.23;;;5.80;;
6689;SDS011;3382;51.576;8.076;2023-03-01T14:01:44;7.87;;;5.50;;
6689;SDS011;3382;51.576;8.076;2023-03-01T14:07:12;7.70;;;5.30;;
6689;SDS011;3382;51.576;8.076;2023-03-01T14:09:39;6.30;;;5.43;;
6689;SDS011;3382;51.576;8.076;2023-03-01T14:17:45;6.43;;;5.00;;
6689;SDS011;3382;51.576;8.076;2023-03-01T14:20:16;7.00;;;5.00;;
6689;SDS011;3382;51.576;8.076;2023-03-01T14:22:44;5.93;;;5.33;;
6689;SDS011;3382;51.576;8.076;2023-03-01T14:27:56;8.23;;;5.43;;
6689;SDS011;3382;51.576;8.076;2023-03-01T14:30:31;6.63;;;5.17;;
6689;SDS011;3382;51.576;8.076;2023-03-01T14:33:02;7.73;;;5.10;;
6689;SDS011;3382;51.576;8.076;2023-03-01T14:35:31;7.83;;;5.50;;
6689;SDS011;3382;51.576;8.076;2023-03-01T14:37:59;6.77;;;5.87;;
6689;SDS011;3382;51.576;8.076;2023-03-01T14:40:29;6.83;;;5.20;;
6689;SDS011;3382;51.576;8.076;2023-03-01T14:43:11;7.10;;;4.90;;
6689;SDS011;3382;51.576;8.076;2023-03-01T14:45:42;6.90;;;5.57;;
6689;SDS011;3382;51.576;8.076;2023-03-01T14:48:13;6.77;;;5.10;;
6689;SDS011;3382;51.576;8.076;2023-03-01T14:50:40;7.20;;;4.93;;
6689;SDS011;3382;51.576;8.076;2023-03-01T14:53:07;7.40;;;5.60;;
6689;SDS011;3382;51.576;8.076;2023-03-01T14:55:59;7.23;;;5.03;;
6689;SDS011;3382;51.576;8.076;2023-03-01T14:58:28;7.43;;;4.23;;
6689;SDS011;3382;51.576;8.076;2023-03-01T15:01:01;7.30;;;5.27;;
6689;SDS011;3382;51.576;8.076;2023-03-01T15:06:11;7.47;;;5.30;;
6689;SDS011;3382;51.576;8.076;2023-03-01T15:08:42;7.77;;;5.13;;
6689;SDS011;3382;51.576;8.076;2023-03-01T15:13:53;6.83;;;5.00;;
6689;SDS011;3382;51.576;8.076;2023-03-01T15:16:40;8.23;;;5.23;;
6689;SDS011;3382;51.576;8.076;2023-03-01T15:19:06;7.67;;;4.57;;
6689;SDS011;3382;51.576;8.076;2023-03-01T15:21:33;8.40;;;5.90;;
6689;SDS011;3382;51.576;8.076;2023-03-01T15:26:44;6.97;;;6.00;;
6689;SDS011;3382;51.576;8.076;2023-03-01T15:29:19;6.37;;;5.60;;
6689;SDS011;3382;51.576;8.076;2023-03-01T15:36:50;6.47;;;4.83;;
6689;SDS011;3382;51.576;8.076;2023-03-01T15:39:34;6.17;;;5.27;;
6689;SDS011;3382;51.576;8.076;2023-03-01T15:42:53;6.27;;;5.20;;
6689;SDS011;3382;51.576;8.076;2023-03-01T15:47:47;5.57;;;4.73;;
6689;SDS011;3382;51.576;8.076;2023-03-01T15:50:22;5.70;;;4.77;;
6689;SDS011;3382;51.576;8.076;2023-03-01T15:52:53;6.27;;;5.30;;
6689;SDS011;3382;51.576;8.076;2023-03-01T15:55:23;6.27;;;5.10;;
6689;SDS011;3382;51.576;8.076;2023-03-01T15:58:02;8.80;;;5.03;;
6689;SDS011;3382;51.576;8.076;2023-03-01T16:00:39;6.90;;;5.30;;
6689;SDS011;3382;51.576;8.076;2023-03-01T16:03:05;6.93;;;4.77;;
6689;SDS011;3382;51.576;8.076;2023-03-01T16:05:34;6.63;;;5.10;;
6689;SDS011;3382;51.576;8.076;2023-03-01T16:08:01;6.13;;;4.70;;
6689;SDS011;3382;51.576;8.076;2023-03-01T16:10:27;6.07;;;4.67;;
6689;SDS011;3382;51.576;8.076;2023-03-01T16:12:53;5.77;;;4.60;;
6689;SDS011;3382;51.576;8.076;2023-03-01T16:17:45;6.93;;;4.70;;
6689;SDS011;3382;51.576;8.076;2023-03-01T16:20:11;5.90;;;4.70;;
6689;SDS011;3382;51.576;8.076;2023-03-01T16:22:40;6.77;;;5.00;;
6689;SDS011;3382;51.576;8.076;2023-03-01T16:25:08;7.07;;;4.33;;
6689;SDS011;3382;51.576;8.076;2023-03-01T16:27:34;7.73;;;4.90;;
6689;SDS011;3382;51.576;8.076;2023-03-01T16:30:00;10.53;;;4.50;;
6689;SDS011;3382;51.576;8.076;2023-03-01T16:32:26;7.00;;;5.03;;
6689;SDS011;3382;51.576;8.076;2023-03-01T16:34:51;8.10;;;5.10;;
6689;SDS011;3382;51.576;8.076;2023-03-01T16:37:17;5.63;;;4.70;;
6689;SDS011;3382;51.576;8.076;2023-03-01T16:39:44;8.23;;;5.10;;
6689;SDS011;3382;51.576;8.076;2023-03-01T16:42:09;6.60;;;5.30;;
6689;SDS011;3382;51.576;8.076;2023-03-01T16:44:35;8.40;;;4.50;;
6689;SDS011;3382;51.576;8.076;2023-03-01T16:47:00;6.23;;;4.63;;
6689;SDS011;3382;51.576;8.076;2023-03-01T16:49:26;6.20;;;4.93;;
6689;SDS011;3382;51.576;8.076;2023-03-01T16:51:53;9.80;;;5.60;;
6689;SDS011;3382;51.576;8.076;2023-03-01T16:54:19;6.63;;;5.13;;
6689;SDS011;3382;51.576;8.076;2023-03-01T16:56:44;6.93;;;5.20;;
6689;SDS011;3382;51.576;8.076;2023-03-01T16:59:10;6.13;;;5.03;;
6689;SDS011;3382;51.576;8.076;2023-03-01T17:01:35;8.47;;;5.60;;
6689;SDS011;3382;51.576;8.076;2023-03-01T17:04:05;8.10;;;5.63;;
6689;SDS011;3382;51.576;8.076;2023-03-01T17:06:32;6.67;;;5.70;;
6689;SDS011;3382;51.576;8.076;2023-03-01T17:09:00;7.70;;;5.63;;
6689;SDS011;3382;51.576;8.076;2023-03-01T17:11:28;7.47;;;5.47;;
6689;SDS011;3382;51.576;8.076;2023-03-01T17:13:54;6.80;;;5.77;;
6689;SDS011;3382;51.576;8.076;2023-03-01T17:16:20;9.33;;;6.17;;
6689;SDS011;3382;51.576;8.076;2023-03-01T17:18:46;7.57;;;5.97;;
6689;SDS011;3382;51.576;8.076;2023-03-01T17:21:12;10.30;;;6.13;;